Terminal Aerodrome Forecast
Issued by NWS

Current Version | Previous Version | Text Only | Print | Product List | Glossary On
Versions: 1 2 3 4 5 6 7 8 9 10 11 12 13 14 15 16 17 18 19 20
000
FTUS43 KICT 012335
TAFCNU
TAF
KCNU 012335Z 0200/0224 09010KT P6SM SCT020 BKN035
     FM020100 09005KT P6SM SCT025 BKN035
     FM020900 10005KT P6SM SCT009 BKN020
     FM021600 15011KT P6SM SCT025 BKN030=

USA.gov is the U.S. government's official web portal to all federal, state and local government web resources and services.